sensor_id;sensor_type;location;lat;lon;timestamp;temperature;humidity
35563;DHT22;21665;40.108;18.302;2023-04-25T00:01:54;14.80;99.90
35563;DHT22;21665;40.108;18.302;2023-04-25T00:04:20;14.80;99.90
35563;DHT22;21665;40.108;18.302;2023-04-25T00:06:47;14.80;99.90
35563;DHT22;21665;40.108;18.302;2023-04-25T00:09:14;14.80;99.90
35563;DHT22;21665;40.108;18.302;2023-04-25T00:11:41;14.80;99.90
35563;DHT22;21665;40.108;18.302;2023-04-25T00:14:07;14.80;99.90
35563;DHT22;21665;40.108;18.302;2023-04-25T00:16:33;14.80;99.90
35563;DHT22;21665;40.108;18.302;2023-04-25T00:19:01;14.80;99.90
35563;DHT22;21665;40.108;18.302;2023-04-25T00:21:28;14.80;99.90
35563;DHT22;21665;40.108;18.302;2023-04-25T00:23:55;14.70;99.90
35563;DHT22;21665;40.108;18.302;2023-04-25T00:26:23;14.70;99.90
35563;DHT22;21665;40.108;18.302;2023-04-25T00:28:49;14.60;99.90
35563;DHT22;21665;40.108;18.302;2023-04-25T00:31:15;14.60;99.90
35563;DHT22;21665;40.108;18.302;2023-04-25T00:33:42;14.50;99.90
35563;DHT22;21665;40.108;18.302;2023-04-25T00:36:09;14.40;99.90
35563;DHT22;21665;40.108;18.302;2023-04-25T00:38:36;14.30;99.90
35563;DHT22;21665;40.108;18.302;2023-04-25T00:41:06;14.10;99.90
35563;DHT22;21665;40.108;18.302;2023-04-25T00:43:35;14.00;99.90
35563;DHT22;21665;40.108;18.302;2023-04-25T00:46:02;13.90;99.90
35563;DHT22;21665;40.108;18.302;2023-04-25T00:48:29;13.80;99.90
35563;DHT22;21665;40.108;18.302;2023-04-25T00:50:58;13.70;99.90
35563;DHT22;21665;40.108;18.302;2023-04-25T00:53:28;13.70;99.90
35563;DHT22;21665;40.108;18.302;2023-04-25T00:56:01;13.60;99.90
35563;DHT22;21665;40.108;18.302;2023-04-25T00:58:28;13.60;99.90
35563;DHT22;21665;40.108;18.302;2023-04-25T01:00:55;13.60;99.90
35563;DHT22;21665;40.108;18.302;2023-04-25T01:03:22;13.60;99.90
35563;DHT22;21665;40.108;18.302;2023-04-25T01:05:50;13.60;99.90
35563;DHT22;21665;40.108;18.302;2023-04-25T01:08:17;13.50;99.90
35563;DHT22;21665;40.108;18.302;2023-04-25T01:10:43;13.50;99.90
35563;DHT22;21665;40.108;18.302;2023-04-25T01:13:09;13.50;99.90
35563;DHT22;21665;40.108;18.302;2023-04-25T01:15:37;13.40;99.90
35563;DHT22;21665;40.108;18.302;2023-04-25T01:18:05;13.30;99.90
35563;DHT22;21665;40.108;18.302;2023-04-25T01:20:33;13.30;99.90
35563;DHT22;21665;40.108;18.302;2023-04-25T01:23:00;13.30;99.90
35563;DHT22;21665;40.108;18.302;2023-04-25T01:25:30;13.20;99.90
35563;DHT22;21665;40.108;18.302;2023-04-25T01:27:57;13.20;99.90
35563;DHT22;21665;40.108;18.302;2023-04-25T01:30:29;13.20;99.90
35563;DHT22;21665;40.108;18.302;2023-04-25T01:32:57;13.20;99.90
35563;DHT22;21665;40.108;18.302;2023-04-25T01:35:24;13.20;99.90
35563;DHT22;21665;40.108;18.302;2023-04-25T01:37:57;13.10;99.90
35563;DHT22;21665;40.108;18.302;2023-04-25T01:40:25;13.10;99.90
35563;DHT22;21665;40.108;18.302;2023-04-25T01:42:53;13.10;99.90
35563;DHT22;21665;40.108;18.302;2023-04-25T01:45:20;13.10;99.90
35563;DHT22;21665;40.108;18.302;2023-04-25T01:47:51;13.10;99.90
35563;DHT22;21665;40.108;18.302;2023-04-25T01:50:18;13.10;99.90
35563;DHT22;21665;40.108;18.302;2023-04-25T01:52:45;13.10;99.90
35563;DHT22;21665;40.108;18.302;2023-04-25T01:55:13;13.10;99.90
35563;DHT22;21665;40.108;18.302;2023-04-25T01:57:49;13.10;99.90
35563;DHT22;21665;40.108;18.302;2023-04-25T02:00:17;13.10;99.90
35563;DHT22;21665;40.108;18.302;2023-04-25T02:02:43;13.00;99.90
35563;DHT22;21665;40.108;18.302;2023-04-25T02:05:36;13.00;99.90
35563;DHT22;21665;40.108;18.302;2023-04-25T02:08:06;13.00;99.90
35563;DHT22;21665;40.108;18.302;2023-04-25T02:10:34;12.90;99.90
35563;DHT22;21665;40.108;18.302;2023-04-25T02:13:21;12.80;99.90
35563;DHT22;21665;40.108;18.302;2023-04-25T02:15:59;12.80;99.90
35563;DHT22;21665;40.108;18.302;2023-04-25T02:18:26;12.80;99.90
35563;DHT22;21665;40.108;18.302;2023-04-25T02:20:52;12.80;99.90
35563;DHT22;21665;40.108;18.302;2023-04-25T02:23:20;12.90;99.90
35563;DHT22;21665;40.108;18.302;2023-04-25T02:25:46;12.90;99.90
35563;DHT22;21665;40.108;18.302;2023-04-25T02:28:13;13.00;99.90
35563;DHT22;21665;40.108;18.302;2023-04-25T02:30:40;13.10;99.90
35563;DHT22;21665;40.108;18.302;2023-04-25T02:33:07;13.20;99.90
35563;DHT22;21665;40.108;18.302;2023-04-25T02:35:36;13.20;99.90
35563;DHT22;21665;40.108;18.302;2023-04-25T02:38:02;13.40;99.90
35563;DHT22;21665;40.108;18.302;2023-04-25T02:40:29;13.40;99.90
35563;DHT22;21665;40.108;18.302;2023-04-25T02:42:55;13.40;99.90
35563;DHT22;21665;40.108;18.302;2023-04-25T02:45:22;13.50;99.90
35563;DHT22;21665;40.108;18.302;2023-04-25T02:47:49;13.50;99.90
35563;DHT22;21665;40.108;18.302;2023-04-25T02:50:19;13.50;99.90
35563;DHT22;21665;40.108;18.302;2023-04-25T02:52:45;13.60;99.90
35563;DHT22;21665;40.108;18.302;2023-04-25T02:55:19;13.60;99.90
35563;DHT22;21665;40.108;18.302;2023-04-25T02:57:47;13.70;99.90
35563;DHT22;21665;40.108;18.302;2023-04-25T03:00:22;13.60;99.90
35563;DHT22;21665;40.108;18.302;2023-04-25T03:02:49;13.70;99.90
35563;DHT22;21665;40.108;18.302;2023-04-25T03:05:15;13.70;99.90
35563;DHT22;21665;40.108;18.302;2023-04-25T03:07:42;13.70;99.90
35563;DHT22;21665;40.108;18.302;2023-04-25T03:10:10;13.60;99.90
35563;DHT22;21665;40.108;18.302;2023-04-25T03:12:37;13.60;99.90
35563;DHT22;21665;40.108;18.302;2023-04-25T03:15:04;13.60;99.90
35563;DHT22;21665;40.108;18.302;2023-04-25T03:17:31;13.60;99.90
35563;DHT22;21665;40.108;18.302;2023-04-25T03:19:58;13.60;99.90
35563;DHT22;21665;40.108;18.302;2023-04-25T03:22:25;13.50;99.90
35563;DHT22;21665;40.108;18.302;2023-04-25T03:24:51;13.50;99.90
35563;DHT22;21665;40.108;18.302;2023-04-25T03:27:19;13.40;99.90
35563;DHT22;21665;40.108;18.302;2023-04-25T03:29:46;13.40;99.90
35563;DHT22;21665;40.108;18.302;2023-04-25T03:32:13;13.40;99.90
35563;DHT22;21665;40.108;18.302;2023-04-25T03:34:40;13.40;99.90
35563;DHT22;21665;40.108;18.302;2023-04-25T03:37:07;13.40;99.90
35563;DHT22;21665;40.108;18.302;2023-04-25T03:39:37;13.40;99.90
35563;DHT22;21665;40.108;18.302;2023-04-25T03:42:06;13.30;99.90
35563;DHT22;21665;40.108;18.302;2023-04-25T03:44:32;13.30;99.90
35563;DHT22;21665;40.108;18.302;2023-04-25T03:47:00;13.30;99.90
35563;DHT22;21665;40.108;18.302;2023-04-25T03:49:27;13.20;99.90
35563;DHT22;21665;40.108;18.302;2023-04-25T03:52:02;13.30;99.90
35563;DHT22;21665;40.108;18.302;2023-04-25T03:54:34;13.30;99.90
35563;DHT22;21665;40.108;18.302;2023-04-25T03:57:07;13.30;99.90
35563;DHT22;21665;40.108;18.302;2023-04-25T03:59:37;13.30;99.90
35563;DHT22;21665;40.108;18.302;2023-04-25T04:02:05;13.30;99.90
35563;DHT22;21665;40.108;18.302;2023-04-25T04:04:35;13.30;99.90
35563;DHT22;21665;40.108;18.302;2023-04-25T04:07:01;13.40;99.90
35563;DHT22;21665;40.108;18.302;2023-04-25T04:09:31;13.50;99.90
35563;DHT22;21665;40.108;18.302;2023-04-25T04:11:59;13.50;99.90
35563;DHT22;21665;40.108;18.302;2023-04-25T04:14:30;13.60;99.90
35563;DHT22;21665;40.108;18.302;2023-04-25T04:16:56;13.50;99.90
35563;DHT22;21665;40.108;18.302;2023-04-25T04:19:23;13.60;99.90
35563;DHT22;21665;40.108;18.302;2023-04-25T04:21:58;13.60;99.90
35563;DHT22;21665;40.108;18.302;2023-04-25T04:24:26;13.70;99.90
35563;DHT22;21665;40.108;18.302;2023-04-25T04:26:58;13.70;99.90
35563;DHT22;21665;40.108;18.302;2023-04-25T04:29:43;13.80;99.90
35563;DHT22;21665;40.108;18.302;2023-04-25T04:32:24;13.80;99.90
35563;DHT22;21665;40.108;18.302;2023-04-25T04:34:53;13.90;99.90
35563;DHT22;21665;40.108;18.302;2023-04-25T04:37:22;14.00;99.90
35563;DHT22;21665;40.108;18.302;2023-04-25T04:39:50;14.00;99.90
35563;DHT22;21665;40.108;18.302;2023-04-25T04:42:47;14.20;99.90
35563;DHT22;21665;40.108;18.302;2023-04-25T04:45:37;14.30;99.90
35563;DHT22;21665;40.108;18.302;2023-04-25T04:48:21;14.50;99.90
35563;DHT22;21665;40.108;18.302;2023-04-25T04:50:55;14.70;99.90
35563;DHT22;21665;40.108;18.302;2023-04-25T04:53:42;15.00;99.90
35563;DHT22;21665;40.108;18.302;2023-04-25T04:56:17;15.50;99.90
35563;DHT22;21665;40.108;18.302;2023-04-25T04:59:11;16.40;99.90
35563;DHT22;21665;40.108;18.302;2023-04-25T05:01:44;17.90;99.90
35563;DHT22;21665;40.108;18.302;2023-04-25T05:04:35;19.20;99.90
35563;DHT22;21665;40.108;18.302;2023-04-25T05:07:18;20.40;99.90
35563;DHT22;21665;40.108;18.302;2023-04-25T05:09:59;21.40;99.90
35563;DHT22;21665;40.108;18.302;2023-04-25T05:12:44;22.20;99.90
35563;DHT22;21665;40.108;18.302;2023-04-25T05:15:11;22.70;99.90
35563;DHT22;21665;40.108;18.302;2023-04-25T05:18:02;23.10;99.90
35563;DHT22;21665;40.108;18.302;2023-04-25T05:20:54;23.60;99.90
35563;DHT22;21665;40.108;18.302;2023-04-25T05:23:39;24.00;99.90
35563;DHT22;21665;40.108;18.302;2023-04-25T05:26:21;24.10;99.90
35563;DHT22;21665;40.108;18.302;2023-04-25T05:29:13;24.00;99.90
35563;DHT22;21665;40.108;18.302;2023-04-25T05:31:53;24.10;99.90
35563;DHT22;21665;40.108;18.302;2023-04-25T05:34:20;24.00;99.90
35563;DHT22;21665;40.108;18.302;2023-04-25T05:36:59;24.20;99.90
35563;DHT22;21665;40.108;18.302;2023-04-25T05:39:26;24.40;99.90
35563;DHT22;21665;40.108;18.302;2023-04-25T05:41:53;24.70;99.90
35563;DHT22;21665;40.108;18.302;2023-04-25T05:44:45;24.90;99.90
35563;DHT22;21665;40.108;18.302;2023-04-25T05:47:35;25.00;99.90
35563;DHT22;21665;40.108;18.302;2023-04-25T05:50:34;25.00;99.90
35563;DHT22;21665;40.108;18.302;2023-04-25T05:53:16;25.20;99.90
35563;DHT22;21665;40.108;18.302;2023-04-25T05:55:43;25.20;99.90
35563;DHT22;21665;40.108;18.302;2023-04-25T05:58:22;25.30;99.90
35563;DHT22;21665;40.108;18.302;2023-04-25T06:00:48;25.20;99.90
35563;DHT22;21665;40.108;18.302;2023-04-25T06:03:15;25.40;99.90
35563;DHT22;21665;40.108;18.302;2023-04-25T06:05:42;25.50;99.90
35563;DHT22;21665;40.108;18.302;2023-04-25T06:08:09;25.60;99.90
35563;DHT22;21665;40.108;18.302;2023-04-25T06:10:40;25.60;99.90
35563;DHT22;21665;40.108;18.302;2023-04-25T06:13:06;25.90;99.90
35563;DHT22;21665;40.108;18.302;2023-04-25T06:15:35;25.90;99.90
35563;DHT22;21665;40.108;18.302;2023-04-25T06:18:02;26.10;99.90
35563;DHT22;21665;40.108;18.302;2023-04-25T06:20:35;26.10;99.90
35563;DHT22;21665;40.108;18.302;2023-04-25T06:23:02;25.60;99.90
35563;DHT22;21665;40.108;18.302;2023-04-25T06:25:41;25.60;99.90
35563;DHT22;21665;40.108;18.302;2023-04-25T06:28:07;25.10;99.90
35563;DHT22;21665;40.108;18.302;2023-04-25T06:30:34;25.20;99.90
35563;DHT22;21665;40.108;18.302;2023-04-25T06:33:06;25.60;99.90
35563;DHT22;21665;40.108;18.302;2023-04-25T06:35:35;25.50;99.90
35563;DHT22;21665;40.108;18.302;2023-04-25T06:38:02;25.60;99.90
35563;DHT22;21665;40.108;18.302;2023-04-25T06:40:29;25.60;99.90
35563;DHT22;21665;40.108;18.302;2023-04-25T06:42:56;26.00;99.90
35563;DHT22;21665;40.108;18.302;2023-04-25T06:45:45;25.70;99.90
35563;DHT22;21665;40.108;18.302;2023-04-25T06:48:12;25.20;99.90
35563;DHT22;21665;40.108;18.302;2023-04-25T06:50:38;25.30;99.90
35563;DHT22;21665;40.108;18.302;2023-04-25T06:53:05;25.40;99.90
35563;DHT22;21665;40.108;18.302;2023-04-25T06:55:31;25.70;99.90
35563;DHT22;21665;40.108;18.302;2023-04-25T06:58:20;26.00;99.90
35563;DHT22;21665;40.108;18.302;2023-04-25T07:01:04;26.30;99.90
35563;DHT22;21665;40.108;18.302;2023-04-25T07:03:34;26.60;99.90
35563;DHT22;21665;40.108;18.302;2023-04-25T07:06:07;26.60;99.90
35563;DHT22;21665;40.108;18.302;2023-04-25T07:08:34;26.50;99.90
35563;DHT22;21665;40.108;18.302;2023-04-25T07:11:01;26.30;99.90
35563;DHT22;21665;40.108;18.302;2023-04-25T07:13:37;26.60;99.90
35563;DHT22;21665;40.108;18.302;2023-04-25T07:16:03;26.50;99.90
35563;DHT22;21665;40.108;18.302;2023-04-25T07:18:33;26.30;99.90
35563;DHT22;21665;40.108;18.302;2023-04-25T07:21:00;25.70;99.90
35563;DHT22;21665;40.108;18.302;2023-04-25T07:23:28;25.00;99.90
35563;DHT22;21665;40.108;18.302;2023-04-25T10:19:10;24.50;99.90
35563;DHT22;21665;40.108;18.302;2023-04-25T10:21:44;24.10;99.90
35563;DHT22;21665;40.108;18.302;2023-04-25T10:24:13;24.00;99.90
35563;DHT22;21665;40.108;18.302;2023-04-25T10:26:39;23.90;99.90
35563;DHT22;21665;40.108;18.302;2023-04-25T10:29:06;24.00;99.90
35563;DHT22;21665;40.108;18.302;2023-04-25T10:31:33;24.20;99.90
35563;DHT22;21665;40.108;18.302;2023-04-25T10:34:00;24.10;99.90
35563;DHT22;21665;40.108;18.302;2023-04-25T10:36:31;24.30;99.90
35563;DHT22;21665;40.108;18.302;2023-04-25T10:39:04;24.30;99.90
35563;DHT22;21665;40.108;18.302;2023-04-25T10:42:02;24.50;99.90
35563;DHT22;21665;40.108;18.302;2023-04-25T10:44:29;24.70;99.90
35563;DHT22;21665;40.108;18.302;2023-04-25T10:47:00;24.90;99.90
35563;DHT22;21665;40.108;18.302;2023-04-25T10:54:42;24.50;99.90
35563;DHT22;21665;40.108;18.302;2023-04-25T10:57:28;24.20;99.90
35563;DHT22;21665;40.108;18.302;2023-04-25T11:00:05;24.00;99.90
35563;DHT22;21665;40.108;18.302;2023-04-25T11:02:46;24.10;99.90
35563;DHT22;21665;40.108;18.302;2023-04-25T11:05:34;24.20;99.90
35563;DHT22;21665;40.108;18.302;2023-04-25T11:08:02;24.30;99.90
35563;DHT22;21665;40.108;18.302;2023-04-25T11:10:31;24.30;99.90
35563;DHT22;21665;40.108;18.302;2023-04-25T11:12:59;24.30;99.90
35563;DHT22;21665;40.108;18.302;2023-04-25T11:15:29;24.30;99.90
35563;DHT22;21665;40.108;18.302;2023-04-25T11:17:55;24.00;99.90
35563;DHT22;21665;40.108;18.302;2023-04-25T11:20:24;24.00;99.90
35563;DHT22;21665;40.108;18.302;2023-04-25T11:22:52;23.90;99.90
35563;DHT22;21665;40.108;18.302;2023-04-25T11:25:19;24.00;99.90
35563;DHT22;21665;40.108;18.302;2023-04-25T11:27:59;24.10;99.90
35563;DHT22;21665;40.108;18.302;2023-04-25T11:30:27;24.10;99.90
35563;DHT22;21665;40.108;18.302;2023-04-25T11:32:55;24.00;99.90
35563;DHT22;21665;40.108;18.302;2023-04-25T11:35:21;24.00;99.90
35563;DHT22;21665;40.108;18.302;2023-04-25T11:37:49;23.80;99.90
35563;DHT22;21665;40.108;18.302;2023-04-25T11:40:16;23.60;99.90
35563;DHT22;21665;40.108;18.302;2023-04-25T11:42:47;23.60;99.90
35563;DHT22;21665;40.108;18.302;2023-04-25T11:45:14;23.80;99.90
35563;DHT22;21665;40.108;18.302;2023-04-25T11:47:41;23.80;99.90
35563;DHT22;21665;40.108;18.302;2023-04-25T11:50:08;23.80;99.90
35563;DHT22;21665;40.108;18.302;2023-04-25T11:52:42;23.60;99.90
35563;DHT22;21665;40.108;18.302;2023-04-25T11:55:12;23.60;99.90
35563;DHT22;21665;40.108;18.302;2023-04-25T11:57:40;23.60;99.90
35563;DHT22;21665;40.108;18.302;2023-04-25T12:00:15;23.70;99.90
35563;DHT22;21665;40.108;18.302;2023-04-25T12:02:44;23.70;99.90
35563;DHT22;21665;40.108;18.302;2023-04-25T12:05:12;23.50;99.90
35563;DHT22;21665;40.108;18.302;2023-04-25T12:07:39;23.60;99.90
35563;DHT22;21665;40.108;18.302;2023-04-25T12:10:08;23.60;99.90
35563;DHT22;21665;40.108;18.302;2023-04-25T12:12:36;23.40;99.90
35563;DHT22;21665;40.108;18.302;2023-04-25T12:15:24;23.20;99.90
35563;DHT22;21665;40.108;18.302;2023-04-25T12:17:53;23.30;99.90
35563;DHT22;21665;40.108;18.302;2023-04-25T12:20:26;23.00;99.90
35563;DHT22;21665;40.108;18.302;2023-04-25T12:22:53;23.00;99.90
35563;DHT22;21665;40.108;18.302;2023-04-25T12:28:20;23.00;99.90
35563;DHT22;21665;40.108;18.302;2023-04-25T12:33:19;23.20;99.90
35563;DHT22;21665;40.108;18.302;2023-04-25T12:35:45;23.20;99.90
35563;DHT22;21665;40.108;18.302;2023-04-25T12:38:31;23.10;99.90
35563;DHT22;21665;40.108;18.302;2023-04-25T15:38:49;20.90;99.90
35563;DHT22;21665;40.108;18.302;2023-04-25T15:41:17;20.80;99.90
35563;DHT22;21665;40.108;18.302;2023-04-25T15:43:43;20.80;99.90
35563;DHT22;21665;40.108;18.302;2023-04-25T15:46:10;20.70;99.90
35563;DHT22;21665;40.108;18.302;2023-04-25T15:48:36;20.60;99.90
35563;DHT22;21665;40.108;18.302;2023-04-25T15:51:06;20.40;99.90
35563;DHT22;21665;40.108;18.302;2023-04-25T15:53:48;20.50;99.90
35563;DHT22;21665;40.108;18.302;2023-04-25T15:56:14;20.40;99.90
35563;DHT22;21665;40.108;18.302;2023-04-25T15:58:40;20.40;99.90
35563;DHT22;21665;40.108;18.302;2023-04-25T16:01:08;20.30;99.90
35563;DHT22;21665;40.108;18.302;2023-04-25T16:03:35;20.40;99.90
35563;DHT22;21665;40.108;18.302;2023-04-25T16:06:01;20.30;99.90
35563;DHT22;21665;40.108;18.302;2023-04-25T16:08:28;20.20;99.90
35563;DHT22;21665;40.108;18.302;2023-04-25T16:10:55;20.10;99.90
35563;DHT22;21665;40.108;18.302;2023-04-25T16:13:22;20.10;99.90
35563;DHT22;21665;40.108;18.302;2023-04-25T16:15:49;20.10;99.90
35563;DHT22;21665;40.108;18.302;2023-04-25T16:18:15;20.00;99.90
35563;DHT22;21665;40.108;18.302;2023-04-25T16:20:42;20.00;99.90
35563;DHT22;21665;40.108;18.302;2023-04-25T16:23:08;20.00;99.90
35563;DHT22;21665;40.108;18.302;2023-04-25T16:25:37;20.00;99.90
35563;DHT22;21665;40.108;18.302;2023-04-25T16:28:03;19.80;99.90
35563;DHT22;21665;40.108;18.302;2023-04-25T16:30:30;19.70;99.90
35563;DHT22;21665;40.108;18.302;2023-04-25T16:33:03;19.60;99.90
35563;DHT22;21665;40.108;18.302;2023-04-25T16:35:29;19.50;99.90
35563;DHT22;21665;40.108;18.302;2023-04-25T16:37:58;19.40;99.90
35563;DHT22;21665;40.108;18.302;2023-04-25T16:40:25;19.40;99.90
35563;DHT22;21665;40.108;18.302;2023-04-25T16:42:51;19.40;99.90
35563;DHT22;21665;40.108;18.302;2023-04-25T16:45:21;19.30;99.90
35563;DHT22;21665;40.108;18.302;2023-04-25T16:47:49;19.20;99.90
35563;DHT22;21665;40.108;18.302;2023-04-25T16:50:17;19.10;99.90
35563;DHT22;21665;40.108;18.302;2023-04-25T16:52:47;19.00;99.90
35563;DHT22;21665;40.108;18.302;2023-04-25T16:55:14;19.00;99.90
35563;DHT22;21665;40.108;18.302;2023-04-25T16:57:40;18.80;99.90
35563;DHT22;21665;40.108;18.302;2023-04-25T17:00:07;18.80;99.90
35563;DHT22;21665;40.108;18.302;2023-04-25T17:02:38;18.70;99.90
35563;DHT22;21665;40.108;18.302;2023-04-25T17:05:04;18.60;99.90
35563;DHT22;21665;40.108;18.302;2023-04-25T17:07:31;18.50;99.90
35563;DHT22;21665;40.108;18.302;2023-04-25T17:09:58;18.40;99.90
35563;DHT22;21665;40.108;18.302;2023-04-25T17:12:25;18.30;99.90
35563;DHT22;21665;40.108;18.302;2023-04-25T17:14:52;18.20;99.90
35563;DHT22;21665;40.108;18.302;2023-04-25T17:17:19;18.20;99.90
35563;DHT22;21665;40.108;18.302;2023-04-25T17:19:46;18.10;99.90
35563;DHT22;21665;40.108;18.302;2023-04-25T17:22:12;18.00;99.90
35563;DHT22;21665;40.108;18.302;2023-04-25T17:24:40;18.00;99.90
35563;DHT22;21665;40.108;18.302;2023-04-25T17:27:07;18.00;99.90
35563;DHT22;21665;40.108;18.302;2023-04-25T17:29:33;17.90;99.90
35563;DHT22;21665;40.108;18.302;2023-04-25T17:32:01;17.80;99.90
35563;DHT22;21665;40.108;18.302;2023-04-25T17:34:28;17.80;99.90
35563;DHT22;21665;40.108;18.302;2023-04-25T17:36:56;17.70;99.90
35563;DHT22;21665;40.108;18.302;2023-04-25T17:39:23;17.60;99.90
35563;DHT22;21665;40.108;18.302;2023-04-25T17:41:51;17.50;99.90
35563;DHT22;21665;40.108;18.302;2023-04-25T17:44:19;17.50;99.90
35563;DHT22;21665;40.108;18.302;2023-04-25T17:46:46;17.40;99.90
35563;DHT22;21665;40.108;18.302;2023-04-25T17:49:22;17.40;99.90
35563;DHT22;21665;40.108;18.302;2023-04-25T17:51:49;17.30;99.90
35563;DHT22;21665;40.108;18.302;2023-04-25T17:54:15;17.30;99.90
35563;DHT22;21665;40.108;18.302;2023-04-25T18:15:45;16.90;99.90
35563;DHT22;21665;40.108;18.302;2023-04-25T18:18:12;16.90;99.90
35563;DHT22;21665;40.108;18.302;2023-04-25T18:20:46;16.80;99.90
35563;DHT22;21665;40.108;18.302;2023-04-25T18:23:15;16.80;99.90
35563;DHT22;21665;40.108;18.302;2023-04-25T18:25:42;16.80;99.90
35563;DHT22;21665;40.108;18.302;2023-04-25T18:28:08;16.80;99.90
35563;DHT22;21665;40.108;18.302;2023-04-25T18:30:37;16.70;99.90
35563;DHT22;21665;40.108;18.302;2023-04-25T18:33:03;16.70;99.90
35563;DHT22;21665;40.108;18.302;2023-04-25T18:35:29;16.70;99.90
35563;DHT22;21665;40.108;18.302;2023-04-25T18:37:55;16.70;99.90
35563;DHT22;21665;40.108;18.302;2023-04-25T18:40:22;16.60;99.90
35563;DHT22;21665;40.108;18.302;2023-04-25T18:42:49;16.60;99.90
35563;DHT22;21665;40.108;18.302;2023-04-25T18:45:15;16.60;99.90
35563;DHT22;21665;40.108;18.302;2023-04-25T18:47:41;16.60;99.90
35563;DHT22;21665;40.108;18.302;2023-04-25T18:50:08;16.50;99.90
35563;DHT22;21665;40.108;18.302;2023-04-25T18:52:35;16.50;99.90
35563;DHT22;21665;40.108;18.302;2023-04-25T18:55:01;16.50;99.90
35563;DHT22;21665;40.108;18.302;2023-04-25T18:57:28;16.50;99.90
35563;DHT22;21665;40.108;18.302;2023-04-25T18:59:54;16.50;99.90
35563;DHT22;21665;40.108;18.302;2023-04-25T19:02:21;16.50;99.90
35563;DHT22;21665;40.108;18.302;2023-04-25T19:04:47;16.40;99.90
35563;DHT22;21665;40.108;18.302;2023-04-25T19:07:14;16.40;99.90
35563;DHT22;21665;40.108;18.302;2023-04-25T19:09:41;16.40;99.90
35563;DHT22;21665;40.108;18.302;2023-04-25T19:12:07;16.40;99.90
35563;DHT22;21665;40.108;18.302;2023-04-25T19:14:34;16.40;99.90
35563;DHT22;21665;40.108;18.302;2023-04-25T19:17:01;16.30;99.90
35563;DHT22;21665;40.108;18.302;2023-04-25T19:19:30;16.30;99.90
35563;DHT22;21665;40.108;18.302;2023-04-25T19:21:57;16.30;99.90
35563;DHT22;21665;40.108;18.302;2023-04-25T19:24:27;16.30;99.90
35563;DHT22;21665;40.108;18.302;2023-04-25T19:26:56;16.30;99.90
35563;DHT22;21665;40.108;18.302;2023-04-25T19:29:23;16.30;99.90
35563;DHT22;21665;40.108;18.302;2023-04-25T19:31:49;16.30;99.90
35563;DHT22;21665;40.108;18.302;2023-04-25T19:34:16;16.20;99.90
35563;DHT22;21665;40.108;18.302;2023-04-25T19:36:43;16.20;99.90
35563;DHT22;21665;40.108;18.302;2023-04-25T19:39:09;16.20;99.90
35563;DHT22;21665;40.108;18.302;2023-04-25T19:41:37;16.20;99.90
35563;DHT22;21665;40.108;18.302;2023-04-25T19:44:05;16.20;99.90
35563;DHT22;21665;40.108;18.302;2023-04-25T19:46:33;16.20;99.90
35563;DHT22;21665;40.108;18.302;2023-04-25T19:49:00;16.20;99.90
35563;DHT22;21665;40.108;18.302;2023-04-25T19:51:28;16.20;99.90
35563;DHT22;21665;40.108;18.302;2023-04-25T19:53:54;16.20;99.90
35563;DHT22;21665;40.108;18.302;2023-04-25T19:56:24;16.20;99.90
35563;DHT22;21665;40.108;18.302;2023-04-25T19:58:52;16.20;99.90
35563;DHT22;21665;40.108;18.302;2023-04-25T20:01:19;16.20;99.90
35563;DHT22;21665;40.108;18.302;2023-04-25T20:03:47;16.10;99.90
35563;DHT22;21665;40.108;18.302;2023-04-25T20:06:16;16.10;99.90
35563;DHT22;21665;40.108;18.302;2023-04-25T20:08:47;16.20;99.90
35563;DHT22;21665;40.108;18.302;2023-04-25T20:11:14;16.10;99.90
35563;DHT22;21665;40.108;18.302;2023-04-25T20:13:41;16.10;99.90
35563;DHT22;21665;40.108;18.302;2023-04-25T20:16:08;16.10;99.90
35563;DHT22;21665;40.108;18.302;2023-04-25T20:18:35;16.10;99.90
35563;DHT22;21665;40.108;18.302;2023-04-25T20:21:01;16.10;99.90
35563;DHT22;21665;40.108;18.302;2023-04-25T20:23:28;16.10;99.90
35563;DHT22;21665;40.108;18.302;2023-04-25T20:25:54;16.10;99.90
35563;DHT22;21665;40.108;18.302;2023-04-25T20:28:21;16.10;99.90
35563;DHT22;21665;40.108;18.302;2023-04-25T20:30:48;16.00;99.90
35563;DHT22;21665;40.108;18.302;2023-04-25T20:33:15;16.10;99.90
35563;DHT22;21665;40.108;18.302;2023-04-25T20:35:42;16.00;99.90
35563;DHT22;21665;40.108;18.302;2023-04-25T20:38:08;16.00;99.90
35563;DHT22;21665;40.108;18.302;2023-04-25T20:40:35;16.00;99.90
35563;DHT22;21665;40.108;18.302;2023-04-25T20:43:01;16.00;99.90
35563;DHT22;21665;40.108;18.302;2023-04-25T20:45:31;16.00;99.90
35563;DHT22;21665;40.108;18.302;2023-04-25T20:47:59;16.00;99.90
35563;DHT22;21665;40.108;18.302;2023-04-25T20:50:25;16.00;99.90
35563;DHT22;21665;40.108;18.302;2023-04-25T20:52:52;15.90;99.90
35563;DHT22;21665;40.108;18.302;2023-04-25T20:55:18;15.90;99.90
35563;DHT22;21665;40.108;18.302;2023-04-25T20:57:45;15.90;99.90
35563;DHT22;21665;40.108;18.302;2023-04-25T21:00:12;15.90;99.90
35563;DHT22;21665;40.108;18.302;2023-04-25T21:02:44;15.90;99.90
35563;DHT22;21665;40.108;18.302;2023-04-25T21:05:11;15.80;99.90
35563;DHT22;21665;40.108;18.302;2023-04-25T21:07:38;15.80;99.90
35563;DHT22;21665;40.108;18.302;2023-04-25T21:10:04;15.80;99.90
35563;DHT22;21665;40.108;18.302;2023-04-25T21:12:31;15.80;99.90
35563;DHT22;21665;40.108;18.302;2023-04-25T21:14:57;15.80;99.90
35563;DHT22;21665;40.108;18.302;2023-04-25T21:17:25;15.70;99.90
35563;DHT22;21665;40.108;18.302;2023-04-25T21:19:52;15.80;99.90
35563;DHT22;21665;40.108;18.302;2023-04-25T21:22:18;15.70;99.90
35563;DHT22;21665;40.108;18.302;2023-04-25T21:24:45;15.70;99.90
35563;DHT22;21665;40.108;18.302;2023-04-25T21:27:16;15.70;99.90
35563;DHT22;21665;40.108;18.302;2023-04-25T21:29:43;15.70;99.90
35563;DHT22;21665;40.108;18.302;2023-04-25T21:32:10;15.70;99.90
35563;DHT22;21665;40.108;18.302;2023-04-25T21:34:42;15.60;99.90
35563;DHT22;21665;40.108;18.302;2023-04-25T21:37:08;15.70;99.90
35563;DHT22;21665;40.108;18.302;2023-04-25T21:39:38;15.60;99.90
35563;DHT22;21665;40.108;18.302;2023-04-25T21:42:07;15.60;99.90
35563;DHT22;21665;40.108;18.302;2023-04-25T21:44:35;15.60;99.90
35563;DHT22;21665;40.108;18.302;2023-04-25T21:47:02;15.60;99.90
35563;DHT22;21665;40.108;18.302;2023-04-25T21:49:30;15.50;99.90
35563;DHT22;21665;40.108;18.302;2023-04-25T21:51:58;15.50;99.90